Time;durP1;ratioP1;P1;durP2;ratioP2;P2;SDS_P1;SDS_P2;PMS_P1;PMS_P2;Temp;Humidity;BMP_temperature;BMP_pressure;BME280_temperature;BME280_humidity;BME280_pressure;Samples;Min_cycle;Max_cycle;Signal;HPM_P1;HPM_P2
2022/07/29 00:01:37;;;;;;;;;;;;;;;24.26;80.35;153756.94;1605560;87;20163;-59
2022/07/29 00:04:04;;;;;;;;;;;;;;;24.27;80.35;153759.56;1605496;89;20596;-59
2022/07/29 00:06:32;;;;;;;;;;;;;;;24.27;80.21;153759.56;1605961;89;20167;-59
2022/07/29 00:08:59;;;;;;;;;;;;;;;24.29;80.24;153764.78;1605879;89;20524;-59
2022/07/29 00:11:25;;;;;;;;;;;;;;;24.33;80.04;153773.97;1621304;87;20953;-60
2022/07/29 00:13:52;;;;;;;;;;;;;;;24.36;79.70;153780.50;1637282;87;20457;-59
2022/07/29 00:16:20;;;;;;;;;;;;;;;24.39;79.03;153788.34;1637180;87;20187;-59
2022/07/29 00:18:47;;;;;;;;;;;;;;;24.42;77.65;153796.19;1617430;87;21254;-59
2022/07/29 00:21:14;;;;;;;;;;;;;;;24.49;76.73;153814.56;1605265;89;20460;-60
2022/07/29 00:23:41;;;;;;;;;;;;;;;24.54;75.73;153827.64;1605701;89;20111;-59
2022/07/29 00:26:07;;;;;;;;;;;;;;;24.61;74.83;153845.95;1606601;87;21034;-59
2022/07/29 00:28:34;;;;;;;;;;;;;;;24.69;73.84;153865.61;1612380;89;20162;-59
2022/07/29 00:31:01;;;;;;;;;;;;;;;24.71;73.25;153869.56;1612363;87;21263;-60
2022/07/29 00:33:28;;;;;;;;;;;;;;;24.76;72.96;153882.70;1612238;89;20230;-60
2022/07/29 00:35:55;;;;;;;;;;;;;;;24.78;72.59;153887.94;1612432;89;20188;-60
2022/07/29 00:38:22;;;;;;;;;;;;;;;24.81;72.49;153894.50;1612257;89;21109;-60
2022/07/29 00:40:49;;;;;;;;;;;;;;;24.84;72.25;153903.64;1612435;88;20217;-59
2022/07/29 00:43:15;;;;;;;;;;;;;;;24.80;72.29;153891.89;1612119;89;21266;-59
2022/07/29 00:45:42;;;;;;;;;;;;;;;24.72;72.69;153872.19;1584855;88;20210;-59
2022/07/29 00:48:10;;;;;;;;;;;;;;;24.71;72.85;153869.56;1612520;89;20189;-60
2022/07/29 00:50:37;;;;;;;;;;;;;;;24.71;72.86;153869.56;1612828;89;20148;-61
2022/07/29 00:53:05;;;;;;;;;;;;;;;24.71;72.88;153869.56;1612528;89;20482;-60
2022/07/29 00:55:33;;;;;;;;;;;;;;;24.70;72.79;153868.23;1612562;89;21989;-60
2022/07/29 00:58:00;;;;;;;;;;;;;;;24.67;72.90;153859.09;1612536;89;20170;-61
2022/07/29 01:00:28;;;;;;;;;;;;;;;24.63;73.11;153848.58;1612467;87;20197;-60
2022/07/29 01:02:57;;;;;;;;;;;;;;;24.59;72.99;153840.72;1612784;87;38046;-59
2022/07/29 01:05:26;;;;;;;;;;;;;;;24.56;73.20;153831.59;1612515;89;20232;-60
2022/07/29 01:07:54;;;;;;;;;;;;;;;24.52;73.41;153822.41;1612925;89;21349;-59
2022/07/29 01:10:21;;;;;;;;;;;;;;;24.53;73.29;153823.69;1613763;87;20223;-58
2022/07/29 01:12:50;;;;;;;;;;;;;;;24.49;73.42;153813.22;1641737;87;20455;-60
2022/07/29 01:15:17;;;;;;;;;;;;;;;24.47;73.75;153809.33;1641768;87;20215;-60
2022/07/29 01:18:07;;;;;;;;;;;;;;;24.50;73.63;153817.17;1636155;87;20213;-59
2022/07/29 01:21:13;;;;;;;;;;;;;;;24.48;73.64;153811.94;1612292;89;20175;-59
2022/07/29 01:24:00;;;;;;;;;;;;;;;24.48;73.80;153810.61;1612314;89;20288;-59
2022/07/29 01:26:43;;;;;;;;;;;;;;;24.49;73.52;153814.56;1611242;89;20181;-59
2022/07/29 01:29:30;;;;;;;;;;;;;;;24.47;73.56;153809.33;1605419;87;20209;-59
2022/07/29 01:31:58;;;;;;;;;;;;;;;24.44;73.50;153801.47;1605459;87;20460;-58
2022/07/29 01:34:43;;;;;;;;;;;;;;;24.42;73.36;153797.53;1605681;88;21150;-59
2022/07/29 01:37:25;;;;;;;;;;;;;;;24.39;73.39;153789.67;1604367;88;20209;-60
2022/07/29 01:39:53;;;;;;;;;;;;;;;24.40;73.13;153790.95;1605539;89;20221;-59
2022/07/29 01:42:23;;;;;;;;;;;;;;;24.37;73.13;153783.11;1605521;89;20209;-59
2022/07/29 01:44:59;;;;;;;;;;;;;;;24.36;73.02;153780.50;1605396;89;20182;-60
2022/07/29 01:47:38;;;;;;;;;;;;;;;24.31;73.17;153770.03;1604031;88;22629;-60
2022/07/29 01:50:07;;;;;;;;;;;;;;;24.28;72.84;153762.17;1605481;87;20293;-60
2022/07/29 01:52:42;;;;;;;;;;;;;;;24.18;73.26;153737.28;1605628;89;20114;-60
2022/07/29 01:55:13;;;;;;;;;;;;;;;24.17;73.34;153734.67;1605175;89;20209;-59
2022/07/29 01:57:43;;;;;;;;;;;;;;;24.16;72.92;153730.72;1605585;89;20226;-60
2022/07/29 02:00:11;;;;;;;;;;;;;;;24.12;72.98;153720.25;1605450;89;21262;-59
2022/07/29 02:02:41;;;;;;;;;;;;;;;24.02;73.19;153696.72;1605482;89;20443;-59
2022/07/29 02:05:09;;;;;;;;;;;;;;;23.93;73.42;153673.08;1605609;89;20583;-59
2022/07/29 02:07:36;;;;;;;;;;;;;;;23.84;73.79;153650.81;1605558;89;20158;-60
2022/07/29 02:10:04;;;;;;;;;;;;;;;23.78;74.15;153633.83;1605562;89;20644;-60
2022/07/29 02:12:31;;;;;;;;;;;;;;;23.70;74.46;153614.19;1635318;87;21273;-60
2022/07/29 02:15:00;;;;;;;;;;;;;;;23.64;74.55;153599.78;1637036;87;20172;-60
2022/07/29 02:17:36;;;;;;;;;;;;;;;23.59;74.72;153586.70;1634834;87;20418;-59
2022/07/29 02:20:04;;;;;;;;;;;;;;;23.52;74.92;153569.67;1596919;89;20192;-59
2022/07/29 02:22:31;;;;;;;;;;;;;;;23.48;75.34;153557.88;1605025;89;20555;-59
2022/07/29 02:24:58;;;;;;;;;;;;;;;23.42;75.68;153543.47;1605120;89;21263;-60
2022/07/29 02:27:25;;;;;;;;;;;;;;;23.39;76.16;153536.97;1604914;89;20201;-60
2022/07/29 02:29:53;;;;;;;;;;;;;;;23.41;76.48;153542.19;1604898;89;20213;-60
2022/07/29 02:32:19;;;;;;;;;;;;;;;23.41;76.80;153542.19;1604931;89;20229;-59
2022/07/29 02:34:46;;;;;;;;;;;;;;;23.36;77.17;153529.11;1604937;87;20483;-59
2022/07/29 02:37:13;;;;;;;;;;;;;;;23.33;77.56;153521.27;1604664;89;22534;-59
2022/07/29 02:39:41;;;;;;;;;;;;;;;23.31;77.47;153517.31;1604938;89;20570;-58
2022/07/29 02:42:08;;;;;;;;;;;;;;;23.32;77.44;153518.61;1604924;89;20520;-59
2022/07/29 02:44:36;;;;;;;;;;;;;;;23.32;77.28;153518.61;1604789;89;20489;-59
2022/07/29 02:47:07;;;;;;;;;;;;;;;23.31;77.29;153516.00;1592286;89;20287;-72
2022/07/29 02:49:43;;;;;;;;;;;;;;;23.30;77.48;153513.38;1604704;87;22351;-72
2022/07/29 02:52:27;;;;;;;;;;;;;;;23.33;77.29;153521.27;1604845;89;20187;-59
2022/07/29 02:54:57;;;;;;;;;;;;;;;23.30;77.06;153514.72;1605175;89;20124;-72
2022/07/29 02:57:36;;;;;;;;;;;;;;;23.31;77.07;153516.00;1604685;89;20205;-73
2022/07/29 03:00:06;;;;;;;;;;;;;;;23.34;76.95;153523.88;1604792;87;20203;-73
2022/07/29 03:02:38;;;;;;;;;;;;;;;23.39;76.75;153535.63;1604272;89;21848;-72
2022/07/29 03:05:07;;;;;;;;;;;;;;;23.40;76.31;153539.58;1604731;89;20238;-72
2022/07/29 03:07:35;;;;;;;;;;;;;;;23.44;76.00;153550.03;1605271;87;20118;-73
2022/07/29 03:10:02;;;;;;;;;;;;;;;23.42;75.84;153544.81;1605387;88;20186;-72
2022/07/29 03:12:29;;;;;;;;;;;;;;;23.43;75.67;153547.42;1634898;87;20168;-73
2022/07/29 03:14:56;;;;;;;;;;;;;;;23.38;75.81;153534.34;1637224;87;21844;-72
2022/07/29 03:17:24;;;;;;;;;;;;;;;23.34;75.87;153523.88;1635844;87;20435;-72
2022/07/29 03:19:52;;;;;;;;;;;;;;;23.31;76.13;153516.00;1605557;87;20221;-59
2022/07/29 03:22:19;;;;;;;;;;;;;;;23.32;75.98;153519.94;1605347;88;20234;-60
2022/07/29 03:24:46;;;;;;;;;;;;;;;23.32;76.15;153518.61;1605521;87;20190;-60
2022/07/29 03:27:12;;;;;;;;;;;;;;;23.32;76.56;153518.61;1606966;89;21631;-72
2022/07/29 03:29:39;;;;;;;;;;;;;;;23.35;76.43;153526.50;1612658;89;20179;-73
2022/07/29 03:32:07;;;;;;;;;;;;;;;23.37;76.44;153530.39;1612599;89;20185;-72
2022/07/29 03:34:33;;;;;;;;;;;;;;;23.38;76.16;153534.34;1612418;89;20513;-72
2022/07/29 03:37:00;;;;;;;;;;;;;;;23.33;76.21;153521.27;1612585;87;20194;-72
2022/07/29 03:39:31;;;;;;;;;;;;;;;23.30;76.45;153513.38;1612501;89;21098;-72
2022/07/29 03:41:58;;;;;;;;;;;;;;;23.27;77.15;153506.86;1612719;87;20149;-72
2022/07/29 03:44:24;;;;;;;;;;;;;;;23.27;77.15;153506.86;1612554;87;20182;-71
2022/07/29 03:46:52;;;;;;;;;;;;;;;23.24;77.21;153497.64;1612382;87;20193;-73
2022/07/29 03:49:20;;;;;;;;;;;;;;;23.23;77.17;153495.02;1612464;89;20322;-72
2022/07/29 03:51:47;;;;;;;;;;;;;;;23.23;76.69;153496.34;1612536;89;21267;-72
2022/07/29 03:54:15;;;;;;;;;;;;;;;23.25;76.53;153501.63;1612590;89;20592;-60
2022/07/29 03:56:44;;;;;;;;;;;;;;;23.28;76.10;153508.14;1612433;87;20403;-72
2022/07/29 03:59:11;;;;;;;;;;;;;;;23.27;75.84;153506.86;1612385;89;20189;-72
2022/07/29 04:01:37;;;;;;;;;;;;;;;23.29;75.99;153510.77;1612298;89;20163;-73
2022/07/29 04:04:05;;;;;;;;;;;;;;;23.33;75.79;153521.27;1612383;89;21259;-71
2022/07/29 04:06:40;;;;;;;;;;;;;;;23.34;75.80;153523.88;1612569;87;20251;-72
2022/07/29 04:09:07;;;;;;;;;;;;;;;23.38;75.18;153533.02;1612767;87;20210;-72
2022/07/29 04:11:33;;;;;;;;;;;;;;;23.39;74.70;153536.97;1628494;87;20179;-72
2022/07/29 04:14:02;;;;;;;;;;;;;;;23.40;74.20;153539.58;1641994;86;20199;-71
2022/07/29 04:16:28;;;;;;;;;;;;;;;23.40;73.91;153539.58;1641768;86;21213;-71
2022/07/29 04:18:55;;;;;;;;;;;;;;;23.39;73.87;153536.97;1622031;87;20236;-71
2022/07/29 04:21:22;;;;;;;;;;;;;;;23.42;73.71;153544.81;1612420;89;20198;-72
2022/07/29 04:23:51;;;;;;;;;;;;;;;23.44;73.61;153550.03;1612427;87;20193;-72
2022/07/29 04:26:19;;;;;;;;;;;;;;;23.49;73.30;153560.50;1612542;87;20197;-72
2022/07/29 04:28:46;;;;;;;;;;;;;;;23.52;73.31;153568.34;1607510;87;21263;-72
2022/07/29 04:31:14;;;;;;;;;;;;;;;23.55;73.28;153576.23;1605477;89;20189;-72
2022/07/29 04:33:42;;;;;;;;;;;;;;;23.63;73.11;153595.83;1605984;89;20150;-72
2022/07/29 04:36:10;;;;;;;;;;;;;;;23.66;72.76;153603.73;1605320;89;20222;-71
2022/07/29 04:38:39;;;;;;;;;;;;;;;23.69;72.74;153612.86;1605578;87;20158;-71
2022/07/29 04:41:06;;;;;;;;;;;;;;;23.71;71.45;153616.81;1605392;87;22903;-71
2022/07/29 04:43:36;;;;;;;;;;;;;;;23.66;71.13;153603.73;1605342;89;20185;-72
2022/07/29 04:46:03;;;;;;;;;;;;;;;23.59;71.47;153586.70;1605476;89;20214;-71
2022/07/29 04:48:32;;;;;;;;;;;;;;;23.61;71.50;153593.22;1605407;87;20190;-72
2022/07/29 04:51:00;;;;;;;;;;;;;;;23.63;71.56;153597.16;1605616;87;20162;-72
2022/07/29 04:53:27;;;;;;;;;;;;;;;23.66;71.14;153605.02;1605519;87;22066;-72
2022/07/29 04:55:54;;;;;;;;;;;;;;;23.67;71.10;153607.62;1605799;89;20182;-72
2022/07/29 04:58:23;;;;;;;;;;;;;;;23.69;70.87;153612.86;1605476;89;20191;-72
2022/07/29 05:00:51;;;;;;;;;;;;;;;23.70;70.19;153614.19;1604532;87;20207;-72
2022/07/29 05:03:18;;;;;;;;;;;;;;;23.66;69.89;153605.02;1605443;89;21017;-72
2022/07/29 05:05:46;;;;;;;;;;;;;;;23.71;69.89;153618.09;1605901;89;21146;-73
2022/07/29 05:08:13;;;;;;;;;;;;;;;23.77;69.07;153631.22;1605729;87;20481;-72
2022/07/29 05:10:41;;;;;;;;;;;;;;;23.72;69.24;153620.70;1611568;87;20147;-72
2022/07/29 05:13:09;;;;;;;;;;;;;;;23.73;69.23;153623.31;1637105;86;20212;-72
2022/07/29 05:15:36;;;;;;;;;;;;;;;23.69;69.07;153612.86;1637160;87;20197;-72
2022/07/29 05:18:07;;;;;;;;;;;;;;;23.69;69.30;153612.86;1626376;87;20201;-72
2022/07/29 05:20:35;;;;;;;;;;;;;;;23.70;68.91;153615.47;1605369;87;20204;-72
2022/07/29 05:23:02;;;;;;;;;;;;;;;23.73;68.58;153623.31;1605417;89;20464;-72
2022/07/29 05:25:30;;;;;;;;;;;;;;;23.78;68.70;153633.83;1605216;89;20665;-71
2022/07/29 05:27:56;;;;;;;;;;;;;;;23.82;68.43;153644.30;1606543;89;20213;-71
2022/07/29 05:30:23;;;;;;;;;;;;;;;23.81;67.67;153642.97;1612299;89;21251;-71
2022/07/29 05:32:50;;;;;;;;;;;;;;;23.82;67.44;153644.30;1612566;87;20422;-71
2022/07/29 05:35:18;;;;;;;;;;;;;;;23.81;67.08;153642.97;1612027;89;20206;-71
2022/07/29 05:37:45;;;;;;;;;;;;;;;23.81;67.48;153641.69;1612424;89;20150;-71
2022/07/29 05:40:12;;;;;;;;;;;;;;;23.90;67.19;153665.22;1612682;89;20231;-71
2022/07/29 05:42:39;;;;;;;;;;;;;;;23.96;67.09;153680.92;1612401;87;22061;-72
2022/07/29 05:45:07;;;;;;;;;;;;;;;24.05;66.94;153701.95;1612347;89;20328;-72
2022/07/29 05:47:34;;;;;;;;;;;;;;;24.06;67.10;153705.84;1612322;87;20153;-72
2022/07/29 05:50:01;;;;;;;;;;;;;;;24.05;67.60;153701.95;1610375;87;21030;-71
2022/07/29 05:52:28;;;;;;;;;;;;;;;24.05;67.98;153701.95;1609666;88;20173;-72
2022/07/29 05:54:55;;;;;;;;;;;;;;;24.01;68.66;153694.09;1610008;88;21272;-71
2022/07/29 05:57:22;;;;;;;;;;;;;;;24.00;69.01;153691.44;1611828;87;20545;-72
2022/07/29 05:59:50;;;;;;;;;;;;;;;23.98;69.41;153686.16;1610369;88;20183;-72
2022/07/29 06:02:17;;;;;;;;;;;;;;;23.99;69.50;153687.48;1611474;87;21660;-71
2022/07/29 06:04:44;;;;;;;;;;;;;;;23.96;69.12;153680.92;1609711;88;20231;-71
2022/07/29 06:07:12;;;;;;;;;;;;;;;23.94;69.05;153675.69;1610241;88;21335;-72
2022/07/29 06:09:40;;;;;;;;;;;;;;;23.99;68.88;153688.81;1609292;87;20133;-72
2022/07/29 06:12:07;;;;;;;;;;;;;;;24.06;68.93;153704.56;1612061;87;20198;-72
2022/07/29 06:14:35;;;;;;;;;;;;;;;24.07;68.82;153707.19;1609647;87;20422;-72
2022/07/29 06:17:01;;;;;;;;;;;;;;;24.05;69.14;153701.95;1609614;89;20198;-72
2022/07/29 06:19:28;;;;;;;;;;;;;;;24.10;68.99;153715.03;1610294;88;21247;-72
2022/07/29 06:21:55;;;;;;;;;;;;;;;24.12;69.22;153720.25;1609939;88;20187;-72
2022/07/29 06:24:22;;;;;;;;;;;;;;;24.09;69.35;153713.69;1609802;88;20468;-72
2022/07/29 06:26:50;;;;;;;;;;;;;;;24.11;69.43;153717.64;1610514;88;20144;-72
2022/07/29 06:29:18;;;;;;;;;;;;;;;24.15;69.57;153729.44;1612350;87;20212;-72
2022/07/29 06:31:45;;;;;;;;;;;;;;;24.24;68.88;153751.70;1622874;87;21271;-72
2022/07/29 06:34:12;;;;;;;;;;;;;;;24.31;68.82;153770.03;1629813;87;20179;-73
2022/07/29 06:36:39;;;;;;;;;;;;;;;24.39;68.50;153788.34;1614558;87;20515;-72
2022/07/29 06:39:07;;;;;;;;;;;;;;;24.49;68.27;153814.56;1620941;86;20238;-72
2022/07/29 06:41:34;;;;;;;;;;;;;;;24.54;68.00;153827.64;1621604;87;20763;-72
2022/07/29 06:44:04;;;;;;;;;;;;;;;24.59;67.93;153840.72;1615480;87;21272;-71
2022/07/29 06:46:32;;;;;;;;;;;;;;;24.67;67.54;153859.09;1615280;87;20217;-72
2022/07/29 06:49:01;;;;;;;;;;;;;;;24.74;67.48;153877.42;1617025;87;20211;-72
2022/07/29 06:51:29;;;;;;;;;;;;;;;24.80;67.20;153891.89;1623356;86;20851;-72
2022/07/29 06:53:57;;;;;;;;;;;;;;;24.87;66.82;153910.20;1625877;86;20211;-72
2022/07/29 06:56:24;;;;;;;;;;;;;;;24.96;66.13;153932.48;1625366;85;21214;-73
2022/07/29 06:58:52;;;;;;;;;;;;;;;24.98;65.80;153937.72;1616205;86;20185;-73
2022/07/29 07:01:19;;;;;;;;;;;;;;;24.96;64.87;153932.48;1617922;87;20189;-71
2022/07/29 07:03:47;;;;;;;;;;;;;;;24.95;64.67;153929.86;1623877;87;20104;-71
2022/07/29 07:06:14;;;;;;;;;;;;;;;24.97;64.68;153935.09;1623820;87;20202;-72
2022/07/29 07:08:41;;;;;;;;;;;;;;;25.04;64.82;153953.42;1626573;86;21144;-72
2022/07/29 07:11:08;;;;;;;;;;;;;;;25.15;64.92;153982.27;1612430;87;20211;-72
2022/07/29 07:13:36;;;;;;;;;;;;;;;25.30;64.81;154018.92;1623431;87;20475;-72
2022/07/29 07:16:03;;;;;;;;;;;;;;;25.44;63.90;154055.62;1619637;86;20756;-71
2022/07/29 07:18:32;;;;;;;;;;;;;;;25.54;63.53;154079.28;1627892;87;20190;-72
2022/07/29 07:20:59;;;;;;;;;;;;;;;25.55;63.10;154081.91;1617884;87;21240;-72
2022/07/29 07:23:26;;;;;;;;;;;;;;;25.54;63.26;154079.28;1626047;87;21158;-72
2022/07/29 07:25:54;;;;;;;;;;;;;;;25.66;63.03;154110.70;1618774;86;20223;-60
2022/07/29 07:28:21;;;;;;;;;;;;;;;25.83;62.42;154152.66;1628112;87;20242;-60
2022/07/29 07:30:47;;;;;;;;;;;;;;;25.95;62.24;154184.09;1600610;87;20209;-60
2022/07/29 07:33:15;;;;;;;;;;;;;;;26.09;61.62;154218.19;1608436;87;22802;-61
2022/07/29 07:35:42;;;;;;;;;;;;;;;26.16;61.37;154236.52;1631751;87;20186;-61
2022/07/29 07:38:09;;;;;;;;;;;;;;;26.20;61.16;154245.77;1617730;87;20239;-60
2022/07/29 07:40:36;;;;;;;;;;;;;;;26.27;60.56;154265.44;1631384;86;20211;-60
2022/07/29 07:43:05;;;;;;;;;;;;;;;26.39;60.17;154294.25;1615467;87;20426;-60
2022/07/29 07:45:32;;;;;;;;;;;;;;;26.41;60.42;154300.83;1612800;87;21153;-61
2022/07/29 07:47:59;;;;;;;;;;;;;;;26.47;59.76;154315.27;1621686;87;20229;-60
2022/07/29 07:50:26;;;;;;;;;;;;;;;26.55;59.61;154336.22;1613239;87;20215;-60
2022/07/29 07:52:54;;;;;;;;;;;;;;;26.64;58.62;154357.19;1623103;87;20728;-60
2022/07/29 07:55:22;;;;;;;;;;;;;;;26.67;58.40;154365.09;1629120;87;20512;-60
2022/07/29 07:57:49;;;;;;;;;;;;;;;26.70;58.40;154372.95;1613519;87;21171;-60
2022/07/29 08:02:40;;;;;;;;;;;;;;;26.82;58.08;154403.11;1818433;77;20302;-60
2022/07/29 08:05:07;;;;;;;;;;;;;;;26.71;58.55;154375.56;1788570;79;20135;-60
2022/07/29 08:07:34;;;;;;;;;;;;;;;26.71;58.45;154375.56;1743047;82;21253;-60
2022/07/29 08:10:02;;;;;;;;;;;;;;;26.74;58.15;154383.44;1717420;82;20150;-60
2022/07/29 08:12:29;;;;;;;;;;;;;;;26.71;57.62;154376.86;1764369;81;20196;-61
2022/07/29 08:14:57;;;;;;;;;;;;;;;26.65;57.92;154359.84;1748814;81;20157;-61
2022/07/29 08:17:26;;;;;;;;;;;;;;;26.59;57.96;154345.41;1748385;81;20233;-60
2022/07/29 08:19:53;;;;;;;;;;;;;;;26.58;58.21;154344.08;1757826;81;21256;-59
2022/07/29 08:22:21;;;;;;;;;;;;;;;26.63;57.34;154354.56;1747897;81;20127;-60
2022/07/29 08:24:53;;;;;;;;;;;;;;;26.57;57.03;154341.45;1754995;81;20274;-75
2022/07/29 08:27:20;;;;;;;;;;;;;;;26.50;56.48;154321.78;1743687;81;20221;-60
2022/07/29 08:29:46;;;;;;;;;;;;;;;26.40;56.49;154296.88;1745690;81;20236;-77
2022/07/29 08:32:14;;;;;;;;;;;;;;;26.34;56.61;154281.16;1735259;81;21895;-77
2022/07/29 08:34:40;;;;;;;;;;;;;;;26.36;56.84;154286.39;1726857;81;20178;-77
2022/07/29 08:37:07;;;;;;;;;;;;;;;26.43;56.56;154304.78;1737052;81;20188;-78
2022/07/29 08:39:34;;;;;;;;;;;;;;;26.43;56.13;154304.78;1738356;81;20440;-78
2022/07/29 08:42:03;;;;;;;;;;;;;;;26.29;56.16;154270.67;1737220;81;20182;-77
2022/07/29 08:44:30;;;;;;;;;;;;;;;26.24;56.69;154257.58;1744424;81;21101;-77
2022/07/29 08:46:56;;;;;;;;;;;;;;;26.25;57.10;154260.20;1755521;81;20499;-77
2022/07/29 08:49:23;;;;;;;;;;;;;;;26.27;57.06;154265.44;1756780;81;20229;-77
2022/07/29 08:51:52;;;;;;;;;;;;;;;26.35;57.20;154285.11;1756716;81;20467;-76
2022/07/29 08:54:19;;;;;;;;;;;;;;;26.37;56.57;154289.02;1756882;81;20474;-77
2022/07/29 08:56:50;;;;;;;;;;;;;;;26.44;56.33;154308.69;1756444;81;21664;-60
2022/07/29 08:59:20;;;;;;;;;;;;;;;26.51;56.16;154325.73;1739327;81;20137;-59
2022/07/29 09:01:47;;;;;;;;;;;;;;;26.62;55.83;154351.94;1723995;81;20517;-60
2022/07/29 09:04:14;;;;;;;;;;;;;;;26.68;55.42;154367.70;1718859;82;20174;-60
2022/07/29 09:06:45;;;;;;;;;;;;;;;26.73;55.17;154380.81;1724137;83;20133;-60
2022/07/29 09:09:13;;;;;;;;;;;;;;;26.74;54.98;154384.72;1715544;83;20824;-60
2022/07/29 09:11:40;;;;;;;;;;;;;;;26.76;55.00;154388.67;1723777;82;20589;-60
2022/07/29 09:14:11;;;;;;;;;;;;;;;26.80;54.90;154397.88;1722005;82;20156;-60
2022/07/29 09:16:53;;;;;;;;;;;;;;;26.84;54.59;154408.34;1716209;81;20152;-59
2022/07/29 09:19:25;;;;;;;;;;;;;;;26.95;54.56;154435.94;1719431;83;20510;-60
2022/07/29 09:22:00;;;;;;;;;;;;;;;27.15;53.80;154488.41;1713031;83;20160;-61
2022/07/29 09:24:40;;;;;;;;;;;;;;;27.28;53.99;154521.19;1743558;80;20213;-61
2022/07/29 09:27:20;;;;;;;;;;;;;;;27.45;54.00;154564.47;1728966;82;20230;-59
2022/07/29 09:29:47;;;;;;;;;;;;;;;27.47;53.96;154568.42;1725902;82;20255;-61
2022/07/29 09:32:15;;;;;;;;;;;;;;;27.48;53.39;154569.70;1717646;82;20243;-60
2022/07/29 09:34:46;;;;;;;;;;;;;;;27.39;53.28;154548.73;1720121;83;22054;-60
2022/07/29 09:37:27;;;;;;;;;;;;;;;27.36;53.26;154540.88;1724058;82;20443;-60
2022/07/29 09:39:54;;;;;;;;;;;;;;;27.39;53.43;154548.73;1713240;83;20214;-60
2022/07/29 09:42:32;;;;;;;;;;;;;;;27.48;53.58;154569.70;1712236;83;20212;-60
2022/07/29 09:44:59;;;;;;;;;;;;;;;27.58;53.47;154597.30;1735200;81;20178;-60
2022/07/29 09:47:28;;;;;;;;;;;;;;;27.71;53.30;154630.09;1728535;82;21242;-60
2022/07/29 09:50:00;;;;;;;;;;;;;;;27.89;53.22;154674.72;1702117;82;20181;-60
2022/07/29 09:52:27;;;;;;;;;;;;;;;28.06;52.91;154716.72;1724452;83;20168;-61
2022/07/29 09:55:08;;;;;;;;;;;;;;;28.22;52.66;154757.44;1724060;82;20212;-61
2022/07/29 09:57:35;;;;;;;;;;;;;;;28.44;52.35;154813.89;1719134;83;20446;-61
2022/07/29 10:00:18;;;;;;;;;;;;;;;28.60;50.90;154855.86;1720563;83;20497;-60
2022/07/29 10:02:46;;;;;;;;;;;;;;;28.60;50.72;154855.86;1746591;81;20206;-60
2022/07/29 10:05:22;;;;;;;;;;;;;;;28.64;50.67;154863.78;1723015;82;20177;-61
2022/07/29 10:07:53;;;;;;;;;;;;;;;28.68;50.31;154874.27;1734008;82;20462;-61
2022/07/29 10:10:23;;;;;;;;;;;;;;;28.67;50.36;154871.66;1724739;82;20240;-61
2022/07/29 10:12:56;;;;;;;;;;;;;;;28.71;50.54;154882.14;1744144;82;20172;-60
2022/07/29 10:15:28;;;;;;;;;;;;;;;28.80;50.01;154905.80;1737904;82;20455;-61
2022/07/29 10:17:56;;;;;;;;;;;;;;;28.77;49.65;154897.87;1728271;82;20099;-60
2022/07/29 10:20:24;;;;;;;;;;;;;;;28.71;49.47;154882.14;1756130;81;20219;-60
2022/07/29 10:22:51;;;;;;;;;;;;;;;28.59;49.78;154851.95;1733112;81;20184;-61
2022/07/29 10:25:19;;;;;;;;;;;;;;;28.56;49.86;154845.38;1746809;82;21241;-60
2022/07/29 10:27:47;;;;;;;;;;;;;;;28.57;50.28;154846.70;1751268;82;20174;-60
2022/07/29 10:30:15;;;;;;;;;;;;;;;28.58;50.15;154849.33;1751724;82;20450;-60
2022/07/29 10:33:02;;;;;;;;;;;;;;;28.52;50.01;154834.88;1751364;82;20231;-60
2022/07/29 10:35:54;;;;;;;;;;;;;;;28.48;50.02;154824.39;1734818;82;20483;-61
2022/07/29 10:38:41;;;;;;;;;;;;;;;28.45;50.11;154817.81;1740368;81;21263;-61
2022/07/29 10:41:26;;;;;;;;;;;;;;;28.47;49.96;154820.44;1743780;82;20140;-62
2022/07/29 10:44:11;;;;;;;;;;;;;;;28.49;50.49;154827.00;1741911;82;20180;-62
2022/07/29 10:46:39;;;;;;;;;;;;;;;28.55;51.12;154841.45;1727515;82;20482;-62
2022/07/29 10:49:11;;;;;;;;;;;;;;;28.65;51.00;154866.41;1737231;82;20136;-63
2022/07/29 10:52:01;;;;;;;;;;;;;;;28.66;51.00;154869.03;1734214;82;21025;-62
2022/07/29 10:54:48;;;;;;;;;;;;;;;28.60;50.56;154855.86;1731133;82;20436;-63
2022/07/29 10:57:26;;;;;;;;;;;;;;;28.41;50.53;154807.31;1736761;82;20197;-61
2022/07/29 11:00:10;;;;;;;;;;;;;;;28.28;50.93;154773.17;1750040;81;20312;-61
2022/07/29 11:02:42;;;;;;;;;;;;;;;28.10;51.30;154728.53;1756495;81;20172;-61
2022/07/29 11:05:13;;;;;;;;;;;;;;;27.92;51.86;154681.30;1744542;81;21792;-61
2022/07/29 11:08:00;;;;;;;;;;;;;;;27.83;52.36;154658.98;1757087;81;20452;-61
2022/07/29 11:10:27;;;;;;;;;;;;;;;27.79;52.51;154649.78;1754485;81;20129;-60
2022/07/29 11:12:56;;;;;;;;;;;;;;;27.76;52.28;154640.63;1727584;81;20433;-61
2022/07/29 11:15:23;;;;;;;;;;;;;;;27.69;52.37;154623.56;1757851;81;20165;-61
2022/07/29 11:17:57;;;;;;;;;;;;;;;27.68;52.37;154622.23;1763310;80;21260;-61
2022/07/29 11:20:47;;;;;;;;;;;;;;;27.68;52.45;154622.23;1757857;80;20130;-61
2022/07/29 11:23:38;;;;;;;;;;;;;;;27.78;52.61;154645.88;1746859;81;20142;-61
2022/07/29 11:26:22;;;;;;;;;;;;;;;27.92;52.05;154682.59;1751572;81;20178;-61
2022/07/29 11:28:58;;;;;;;;;;;;;;;28.03;51.64;154711.47;1757665;81;20192;-61
2022/07/29 11:31:42;;;;;;;;;;;;;;;28.10;51.27;154728.53;1710024;83;21157;-61
2022/07/29 11:34:20;;;;;;;;;;;;;;;28.19;51.29;154750.91;1726852;83;20184;-61
2022/07/29 11:37:12;;;;;;;;;;;;;;;28.25;50.88;154766.64;1757971;81;20197;-75
2022/07/29 11:39:43;;;;;;;;;;;;;;;28.32;50.97;154783.72;1758255;81;20126;-76
2022/07/29 11:42:24;;;;;;;;;;;;;;;28.43;51.07;154811.28;1757823;81;20492;-76
2022/07/29 11:44:57;;;;;;;;;;;;;;;28.56;50.70;154845.38;1758223;81;21147;-64
2022/07/29 11:47:25;;;;;;;;;;;;;;;28.65;50.12;154867.69;1757992;81;20221;-61
2022/07/29 11:49:56;;;;;;;;;;;;;;;28.74;50.42;154890.00;1758167;81;20465;-76
2022/07/29 11:52:23;;;;;;;;;;;;;;;28.80;50.10;154905.80;1757983;81;20181;-77
2022/07/29 11:54:50;;;;;;;;;;;;;;;28.77;50.02;154897.87;1727767;80;20186;-76
2022/07/29 11:57:18;;;;;;;;;;;;;;;28.78;50.05;154900.50;1726584;83;21043;-61
2022/07/29 11:59:47;;;;;;;;;;;;;;;28.83;50.32;154913.66;1756897;81;20149;-62
2022/07/29 12:02:15;;;;;;;;;;;;;;;28.83;50.08;154912.38;1718312;83;20457;-62
2022/07/29 12:04:55;;;;;;;;;;;;;;;28.82;50.89;154911.05;1708861;83;20167;-62
2022/07/29 12:07:32;;;;;;;;;;;;;;;28.97;51.13;154947.81;1754782;81;20225;-61
2022/07/29 12:09:59;;;;;;;;;;;;;;;29.16;50.56;154996.38;1744900;82;21233;-76
2022/07/29 12:12:27;;;;;;;;;;;;;;;29.20;50.64;155006.92;1729007;82;20193;-75
2022/07/29 12:14:56;;;;;;;;;;;;;;;29.26;50.60;155021.33;1748832;81;20127;-76
2022/07/29 12:17:27;;;;;;;;;;;;;;;29.28;50.95;155026.58;1728633;81;20175;-75
2022/07/29 12:19:55;;;;;;;;;;;;;;;29.30;50.92;155031.88;1733986;82;20183;-75
2022/07/29 12:22:34;;;;;;;;;;;;;;;29.33;51.54;155039.75;1747519;81;20173;-75
2022/07/29 12:25:03;;;;;;;;;;;;;;;29.33;51.39;155039.75;1752974;81;20174;-76
2022/07/29 12:27:30;;;;;;;;;;;;;;;29.14;51.92;154992.47;1740436;81;20211;-77
2022/07/29 12:30:00;;;;;;;;;;;;;;;29.01;52.29;154959.66;1737978;81;20119;-76
2022/07/29 12:32:37;;;;;;;;;;;;;;;28.90;52.16;154929.45;1753883;81;20221;-60
2022/07/29 12:35:05;;;;;;;;;;;;;;;28.74;52.78;154890.00;1737822;81;21283;-60
2022/07/29 12:37:36;;;;;;;;;;;;;;;28.55;53.24;154841.45;1728674;81;20200;-76
2022/07/29 12:40:04;;;;;;;;;;;;;;;28.37;53.86;154796.83;1740007;81;20636;-76
2022/07/29 12:42:31;;;;;;;;;;;;;;;28.23;54.56;154761.39;1727984;81;20479;-77
2022/07/29 12:44:58;;;;;;;;;;;;;;;28.19;54.66;154749.56;1728794;81;20141;-75
2022/07/29 12:47:26;;;;;;;;;;;;;;;28.22;54.62;154758.78;1745384;81;20422;-61
2022/07/29 12:50:15;;;;;;;;;;;;;;;28.21;54.48;154754.81;1757331;81;20135;-60
2022/07/29 12:52:42;;;;;;;;;;;;;;;28.18;54.76;154746.94;1757413;81;20454;-61